Main page
METAR-TAF:

METAR-TAF

Airports :

Palma de Mallorca Airport

Palma de Mallorca, Spain

latitude: 39-33N, longitude: 002-44E, elevation: 4 m

Current weather observation

The report was made 27 minutes ago, at 22:30 UTC
Wind 2 kt from the South
Temperature 11°C
Humidity 94%
Pressure 1000 hPa
Visibility 10 km or more
Few clouds at a height of 2800 ft

METAR: LEPA 192230Z 18002KT 9999 FEW028 11/10 Q1000 NOSIG

Time: 23:57 (22:57 UTC)

Forecast

The report was made 5 hours and 57 minutes ago, at 17:00 UTC
Forecast valid from 19 at 18 UTC to 20 at 18 UTC
Wind 5 kt from the North/Northeast
Visibility 10 km or more
Broken clouds at a height of 2000 ft
Becoming
from 20 at 10 UTC to 20 at 12 UTC
Wind 15 kt from the Southwest
Probability 40% :
Temporary
from 20 at 06 UTC to 20 at 10 UTC
Visibility: 3000 m
rain

TAF: LEPA 191700Z 1918/2018 02005KT 9999 BKN020 TX17/2012Z TN07/2006Z BECMG 2010/2012 22015KT PROB40 TEMPO 2006/2010 3000 RA

Weather observations and forecasts of more than 4000 airports (METAR and TAF reports).

The available stations are represented by yellow and red dots on the map.

Hover mouse over dot to see the name of the station.

Then click to see weather observations and forecasts.

To change the map : click on the green buttons with a black cross to zoom in, on the green button with a dash to zoom out, or on the green arrows for adjacent maps.


METAR-TAF: